createdAt,value
2019-05-15T00:00:08.875Z,8.90
2019-05-15T00:02:38.880Z,8.90
2019-05-15T00:05:09.104Z,9.00
2019-05-15T00:07:39.137Z,9.00
2019-05-15T00:10:09.007Z,8.90
2019-05-15T00:12:39.559Z,8.90
2019-05-15T00:15:09.602Z,8.90
2019-05-15T00:17:39.276Z,8.90
2019-05-15T00:20:09.997Z,8.90
2019-05-15T00:22:39.327Z,8.90
2019-05-15T00:25:09.289Z,8.90
2019-05-15T00:27:38.986Z,8.80
2019-05-15T00:30:08.744Z,8.80
2019-05-15T00:32:39.348Z,8.70
2019-05-15T00:35:09.582Z,8.80
2019-05-15T00:37:39.116Z,8.80
2019-05-15T00:40:08.958Z,8.80
2019-05-15T00:42:38.682Z,8.70
2019-05-15T00:45:09.397Z,8.80
2019-05-15T00:47:39.822Z,8.80
2019-05-15T00:50:09.958Z,8.80
2019-05-15T00:52:39.443Z,8.80
2019-05-15T00:55:09.082Z,8.80
2019-05-15T00:57:39.343Z,8.80
2019-05-15T01:00:09.870Z,8.80
2019-05-15T01:02:39.106Z,8.80
2019-05-15T01:05:09.054Z,8.80
2019-05-15T01:07:39.259Z,8.80
2019-05-15T01:10:10.099Z,8.80
2019-05-15T01:12:39.345Z,8.70
2019-05-15T01:15:09.744Z,8.70
2019-05-15T01:17:39.405Z,8.70
2019-05-15T01:20:08.932Z,8.70
2019-05-15T01:22:39.383Z,8.70
2019-05-15T01:25:09.018Z,8.70
2019-05-15T01:27:38.872Z,8.70
2019-05-15T01:30:09.090Z,8.60
2019-05-15T01:32:39.558Z,8.60
2019-05-15T01:35:09.740Z,8.60
2019-05-15T01:37:39.346Z,8.60
2019-05-15T01:40:09.219Z,8.60
2019-05-15T01:42:39.041Z,8.50
2019-05-15T01:45:08.803Z,8.50
2019-05-15T01:47:38.890Z,8.50
2019-05-15T01:50:09.448Z,8.50
2019-05-15T01:52:39.154Z,8.50
2019-05-15T01:55:10.037Z,8.50
2019-05-15T01:57:39.119Z,8.40
2019-05-15T02:00:08.961Z,8.40
2019-05-15T02:02:39.013Z,8.50
2019-05-15T02:05:09.618Z,8.40
2019-05-15T02:07:39.296Z,8.30
2019-05-15T02:10:09.329Z,8.30
2019-05-15T02:12:39.163Z,8.30
2019-05-15T02:15:09.799Z,8.40
2019-05-15T02:17:39.447Z,8.30
2019-05-15T02:20:09.213Z,8.30
2019-05-15T02:22:42.367Z,8.30
2019-05-15T02:25:09.311Z,8.40
2019-05-15T02:27:39.345Z,8.30
2019-05-15T02:30:22.662Z,8.30
2019-05-15T02:32:40.191Z,8.30
2019-05-15T02:35:10.373Z,8.20
2019-05-15T02:37:40.859Z,8.30
2019-05-15T02:40:11.067Z,8.30
2019-05-15T02:42:40.750Z,8.30
2019-05-15T02:45:10.570Z,8.30
2019-05-15T02:47:40.227Z,8.40
2019-05-15T02:50:11.095Z,8.30
2019-05-15T02:52:44.883Z,8.40
2019-05-15T02:55:11.408Z,8.40
2019-05-15T02:57:40.399Z,8.40
2019-05-15T03:00:11.132Z,8.30
2019-05-15T03:02:41.609Z,8.30
2019-05-15T03:05:11.012Z,8.30
2019-05-15T03:07:40.796Z,8.30
2019-05-15T03:10:10.161Z,8.30
2019-05-15T03:12:40.623Z,8.30
2019-05-15T03:15:10.283Z,8.30
2019-05-15T03:17:40.800Z,8.30
2019-05-15T03:20:11.403Z,8.30
2019-05-15T03:22:40.855Z,8.30
2019-05-15T03:25:11.096Z,8.30
2019-05-15T03:27:40.460Z,8.20
2019-05-15T03:30:14.900Z,8.20
2019-05-15T03:32:51.966Z,8.20
2019-05-15T03:35:14.980Z,8.20
2019-05-15T03:37:42.641Z,8.30
2019-05-15T03:40:11.742Z,8.30
2019-05-15T03:42:40.811Z,8.30
2019-05-15T03:45:10.620Z,8.30
2019-05-15T03:47:40.566Z,8.20
2019-05-15T03:50:09.965Z,8.20
2019-05-15T03:52:39.842Z,8.30
2019-05-15T03:55:10.929Z,8.30
2019-05-15T03:57:40.604Z,8.20
2019-05-15T04:00:10.075Z,8.20
2019-05-15T04:02:39.950Z,8.30
2019-05-15T04:05:11.937Z,8.20
2019-05-15T04:07:40.330Z,8.20
2019-05-15T04:10:10.376Z,8.20
2019-05-15T04:12:40.741Z,8.20
2019-05-15T04:15:11.324Z,8.20
2019-05-15T04:17:40.822Z,8.20
2019-05-15T04:20:10.745Z,8.10
2019-05-15T04:22:40.703Z,8.10
2019-05-15T04:25:10.529Z,8.20
2019-05-15T04:27:42.721Z,8.10
2019-05-15T04:30:12.186Z,8.20
2019-05-15T04:32:41.337Z,8.20
2019-05-15T04:35:10.617Z,8.20
2019-05-15T04:37:41.018Z,8.20
2019-05-15T04:40:10.493Z,8.10
2019-05-15T04:42:40.142Z,8.00
2019-05-15T04:45:10.363Z,8.00
2019-05-15T04:47:40.247Z,8.10
2019-05-15T04:50:09.821Z,8.10
2019-05-15T04:52:43.141Z,8.10
2019-05-15T04:55:10.655Z,8.20
2019-05-15T04:57:40.856Z,8.30
2019-05-15T05:00:10.603Z,8.20
2019-05-15T05:02:40.540Z,8.20
2019-05-15T05:05:10.739Z,8.20
2019-05-15T05:07:40.150Z,8.20
2019-05-15T05:10:10.181Z,8.20
2019-05-15T05:12:42.009Z,8.30
2019-05-15T05:15:10.602Z,8.20
2019-05-15T05:17:39.607Z,8.20
2019-05-15T05:20:08.712Z,8.20
2019-05-15T05:22:39.365Z,8.20
2019-05-15T05:25:08.547Z,8.20
2019-05-15T05:27:38.294Z,8.20
2019-05-15T05:30:08.876Z,8.20
2019-05-15T05:32:39.002Z,8.20
2019-05-15T05:35:08.759Z,8.20
2019-05-15T05:37:39.026Z,8.20
2019-05-15T05:40:09.160Z,8.20
2019-05-15T05:42:39.015Z,8.20
2019-05-15T05:45:09.513Z,8.20
2019-05-15T05:47:38.793Z,8.10
2019-05-15T05:50:09.099Z,8.20
2019-05-15T05:52:38.990Z,8.30
2019-05-15T05:55:09.240Z,8.30
2019-05-15T05:57:38.587Z,8.30
2019-05-15T06:00:09.229Z,8.30
2019-05-15T06:02:47.436Z,8.30
2019-05-15T06:05:09.596Z,8.30
2019-05-15T06:07:38.943Z,8.30
2019-05-15T06:10:08.813Z,8.30
2019-05-15T06:12:38.825Z,8.40
2019-05-15T06:15:09.252Z,8.30
2019-05-15T06:17:39.263Z,8.30
2019-05-15T06:20:08.716Z,8.40
2019-05-15T06:22:38.682Z,8.40
2019-05-15T06:25:11.282Z,8.40
2019-05-15T06:27:39.196Z,8.40
2019-05-15T06:30:14.666Z,8.40
2019-05-15T06:32:40.293Z,8.40
2019-05-15T06:35:09.868Z,8.40
2019-05-15T06:37:39.818Z,8.30
2019-05-15T06:40:09.174Z,8.40
2019-05-15T06:42:39.376Z,8.40
2019-05-15T06:45:09.326Z,8.40
2019-05-15T06:47:39.467Z,8.40
2019-05-15T06:50:09.591Z,8.40
2019-05-15T06:52:38.581Z,8.50
2019-05-15T06:55:09.043Z,8.40
2019-05-15T06:57:39.690Z,8.30
2019-05-15T07:00:09.725Z,8.40
2019-05-15T07:02:38.816Z,8.40
2019-05-15T07:05:08.292Z,8.40
2019-05-15T07:07:38.800Z,8.40
2019-05-15T07:10:09.057Z,8.40
2019-05-15T07:12:39.098Z,8.30
2019-05-15T07:15:09.411Z,8.30
2019-05-15T07:17:39.197Z,8.30
2019-05-15T07:20:10.749Z,8.30
2019-05-15T07:22:39.876Z,8.30
2019-05-15T07:25:09.631Z,8.30
2019-05-15T07:27:39.271Z,8.30
2019-05-15T07:30:12.126Z,8.30
2019-05-15T07:32:41.495Z,8.30
2019-05-15T07:35:11.366Z,8.30
2019-05-15T07:37:42.075Z,8.30
2019-05-15T07:40:12.977Z,8.30
2019-05-15T07:42:42.055Z,8.30
2019-05-15T07:45:11.871Z,8.20
2019-05-15T07:47:40.983Z,8.30
2019-05-15T07:50:10.846Z,8.30
2019-05-15T07:52:40.300Z,8.40
2019-05-15T07:55:09.935Z,8.40
2019-05-15T07:57:39.740Z,8.40
2019-05-15T08:00:11.552Z,8.40
2019-05-15T08:02:40.676Z,8.30
2019-05-15T08:05:10.630Z,8.40
2019-05-15T08:07:39.823Z,8.40
2019-05-15T08:10:09.833Z,8.40
2019-05-15T08:12:39.389Z,8.40
2019-05-15T08:15:10.099Z,8.50
2019-05-15T08:17:58.499Z,8.50
2019-05-15T08:20:12.178Z,8.60
2019-05-15T08:22:41.235Z,8.60
2019-05-15T08:25:26.658Z,8.60
2019-05-15T08:27:43.062Z,8.70
2019-05-15T08:30:12.641Z,8.70
2019-05-15T08:32:41.850Z,8.70
2019-05-15T08:35:12.856Z,8.70
2019-05-15T08:37:42.030Z,8.70
2019-05-15T08:40:14.294Z,8.70
2019-05-15T08:42:43.440Z,8.70
2019-05-15T08:45:12.684Z,8.70
2019-05-15T08:47:41.931Z,8.70
2019-05-15T08:50:11.494Z,8.80
2019-05-15T08:52:40.563Z,8.80
2019-05-15T08:55:09.639Z,8.90
2019-05-15T08:57:38.625Z,9.00
2019-05-15T09:00:09.748Z,9.10
2019-05-15T09:02:39.070Z,9.00
2019-05-15T09:05:09.338Z,9.00
2019-05-15T09:07:38.599Z,9.00
2019-05-15T09:10:09.191Z,9.00
2019-05-15T09:12:38.973Z,9.10
2019-05-15T09:15:10.370Z,9.20
2019-05-15T09:17:40.028Z,9.20
2019-05-15T09:20:09.921Z,9.30
2019-05-15T09:22:39.065Z,9.30
2019-05-15T09:25:09.352Z,9.30
2019-05-15T09:27:38.554Z,9.20
2019-05-15T09:30:08.702Z,9.30
2019-05-15T09:32:39.245Z,9.30
2019-05-15T09:35:09.894Z,9.40
2019-05-15T09:37:38.980Z,9.40
2019-05-15T09:40:09.155Z,9.40
2019-05-15T09:42:38.851Z,9.40
2019-05-15T09:45:09.246Z,9.50
2019-05-15T09:47:39.694Z,9.70
2019-05-15T09:50:09.449Z,9.70
2019-05-15T09:52:38.995Z,9.70
2019-05-15T09:55:09.903Z,9.70
2019-05-15T09:57:38.997Z,9.70
2019-05-15T10:00:09.175Z,9.70
2019-05-15T10:02:39.511Z,9.80
2019-05-15T10:05:11.198Z,9.70
2019-05-15T10:07:40.558Z,9.80
2019-05-15T10:10:10.255Z,9.90
2019-05-15T10:12:39.231Z,10.00
2019-05-15T10:15:11.538Z,10.00
2019-05-15T10:17:40.766Z,10.00
2019-05-15T10:20:10.056Z,10.00
2019-05-15T10:22:39.122Z,10.10
2019-05-15T10:25:08.593Z,10.20
2019-05-15T10:27:39.854Z,10.20
2019-05-15T10:30:09.459Z,10.20
2019-05-15T10:32:39.726Z,10.30
2019-05-15T10:35:24.688Z,10.30
2019-05-15T10:37:40.318Z,10.30
2019-05-15T10:40:09.800Z,10.40
2019-05-15T10:42:39.985Z,10.50
2019-05-15T10:45:10.535Z,10.50
2019-05-15T10:47:39.561Z,10.50
2019-05-15T10:50:10.229Z,10.60
2019-05-15T10:52:39.230Z,10.60
2019-05-15T10:55:09.395Z,10.70
2019-05-15T10:57:42.986Z,10.70
2019-05-15T11:00:10.245Z,10.80
2019-05-15T11:02:40.217Z,10.70
2019-05-15T11:05:09.734Z,10.70
2019-05-15T11:07:39.347Z,10.80
2019-05-15T11:10:09.499Z,10.90
2019-05-15T11:12:38.505Z,11.00
2019-05-15T11:15:10.982Z,11.10
2019-05-15T11:17:39.157Z,11.20
2019-05-15T11:20:08.727Z,11.20
2019-05-15T11:22:42.251Z,11.10
2019-05-15T11:25:10.108Z,10.70
2019-05-15T11:27:39.454Z,10.70
2019-05-15T11:30:09.120Z,10.70
2019-05-15T11:32:39.082Z,10.80
2019-05-15T11:35:09.515Z,10.80
2019-05-15T11:37:45.624Z,10.90
2019-05-15T11:40:10.958Z,10.90
2019-05-15T11:42:40.431Z,10.90
2019-05-15T11:45:11.125Z,10.90
2019-05-15T11:47:40.570Z,10.90
2019-05-15T11:50:10.279Z,10.80
2019-05-15T11:52:40.425Z,10.80
2019-05-15T11:55:10.089Z,10.80
2019-05-15T11:57:46.733Z,10.80
2019-05-15T12:00:17.100Z,10.90
2019-05-15T12:02:41.639Z,10.90
2019-05-15T12:05:11.241Z,10.90
2019-05-15T12:07:40.318Z,10.90
2019-05-15T12:10:11.158Z,10.90
2019-05-15T12:12:40.268Z,11.00
2019-05-15T12:15:09.731Z,10.90
2019-05-15T12:17:39.240Z,10.90
2019-05-15T12:20:10.774Z,10.90
2019-05-15T12:22:40.096Z,10.90
2019-05-15T12:25:10.424Z,10.90
2019-05-15T12:27:40.337Z,10.90
2019-05-15T12:30:12.170Z,10.90
2019-05-15T12:32:41.303Z,10.80
2019-05-15T12:35:10.756Z,10.90
2019-05-15T12:37:40.298Z,10.90
2019-05-15T13:00:18.547Z,10.80
2019-05-15T13:02:49.210Z,10.80
2019-05-15T13:05:19.248Z,10.70
2019-05-15T13:07:48.497Z,10.80
2019-05-15T13:10:19.056Z,10.80
2019-05-15T13:12:59.537Z,10.80
2019-05-15T13:15:19.173Z,10.90
2019-05-15T13:17:53.159Z,10.90
2019-05-15T13:20:19.025Z,10.90
2019-05-15T13:25:18.909Z,11.00
2019-05-15T13:27:48.864Z,11.00
2019-05-15T13:30:18.456Z,11.00
2019-05-15T13:32:49.628Z,11.00
2019-05-15T13:35:18.562Z,10.90
2019-05-15T13:37:49.548Z,10.80
2019-05-15T13:40:18.817Z,10.90
2019-05-15T13:42:49.270Z,10.90
2019-05-15T13:45:19.018Z,10.90
2019-05-15T13:47:48.110Z,10.90
2019-05-15T13:50:19.511Z,10.90
2019-05-15T13:52:48.334Z,10.90
2019-05-15T13:55:24.771Z,10.90
2019-05-15T13:57:48.688Z,10.90
2019-05-15T14:00:19.556Z,10.80
2019-05-15T14:02:48.702Z,10.80
2019-05-15T14:05:17.828Z,10.80
2019-05-15T14:07:50.642Z,10.80
2019-05-15T14:10:18.386Z,10.80
2019-05-15T14:12:47.948Z,10.90
2019-05-15T14:15:17.294Z,10.80
2019-05-15T14:17:48.230Z,10.80
2019-05-15T14:20:17.358Z,10.80
2019-05-15T14:22:48.486Z,10.90
2019-05-15T14:25:18.189Z,10.80
2019-05-15T14:27:48.665Z,10.80
2019-05-15T14:30:18.448Z,10.80
2019-05-15T14:32:48.442Z,10.80
2019-05-15T14:35:18.167Z,10.80
2019-05-15T14:38:02.176Z,10.80
2019-05-15T14:40:18.250Z,10.80
2019-05-15T14:42:48.582Z,10.80
2019-05-15T14:45:19.064Z,10.90
2019-05-15T14:47:49.178Z,10.90
2019-05-15T14:50:18.702Z,10.80
2019-05-15T14:52:48.074Z,10.80
2019-05-15T14:55:17.298Z,10.80
2019-05-15T14:57:48.716Z,10.70
2019-05-15T15:00:19.834Z,10.60
2019-05-15T15:02:49.351Z,10.60
2019-05-15T15:05:21.703Z,10.60
2019-05-15T15:07:49.815Z,10.60
2019-05-15T15:10:20.112Z,10.60
2019-05-15T15:12:49.979Z,10.60
2019-05-15T15:15:19.334Z,10.70
2019-05-15T15:17:49.298Z,10.80
2019-05-15T15:20:18.526Z,10.80
2019-05-15T15:22:48.514Z,10.70
2019-05-15T15:25:17.903Z,10.70
2019-05-15T15:27:47.958Z,10.80
2019-05-15T15:30:18.926Z,10.70
2019-05-15T15:32:48.945Z,10.70
2019-05-15T15:35:18.663Z,10.70
2019-05-15T15:37:48.660Z,10.60
2019-05-15T15:40:18.898Z,10.70
2019-05-15T15:42:48.509Z,10.70
2019-05-15T15:45:19.278Z,10.70
2019-05-15T15:47:48.543Z,10.70
2019-05-15T15:50:18.408Z,10.70
2019-05-15T15:52:48.874Z,10.70
2019-05-15T15:55:18.479Z,10.70
2019-05-15T15:57:48.683Z,10.70
2019-05-15T16:00:18.504Z,10.70
2019-05-15T16:02:48.381Z,10.60
2019-05-15T16:05:19.026Z,10.70
2019-05-15T16:07:48.606Z,10.70
2019-05-15T16:10:19.033Z,10.80
2019-05-15T16:12:49.266Z,10.80
2019-05-15T16:15:18.699Z,10.70
2019-05-15T16:17:48.817Z,10.80
2019-05-15T16:20:18.945Z,10.70
2019-05-15T16:22:48.740Z,10.70
2019-05-15T16:25:18.541Z,10.70
2019-05-15T16:27:48.780Z,10.60
2019-05-15T16:30:18.845Z,10.70
2019-05-15T16:32:47.892Z,10.80
2019-05-15T16:35:18.459Z,10.70
2019-05-15T16:37:49.274Z,10.70
2019-05-15T16:40:18.623Z,10.70
2019-05-15T16:42:48.784Z,10.70
2019-05-15T16:45:18.129Z,10.80
2019-05-15T16:47:48.120Z,10.70
2019-05-15T16:50:18.267Z,10.70
2019-05-15T16:52:49.047Z,10.70
2019-05-15T16:55:18.454Z,10.60
2019-05-15T16:57:48.060Z,10.60
2019-05-15T17:00:18.614Z,10.60
2019-05-15T17:02:48.333Z,10.60
2019-05-15T17:05:18.618Z,10.60
2019-05-15T17:07:48.823Z,10.60
2019-05-15T17:10:18.340Z,10.60
2019-05-15T17:12:49.224Z,10.60
2019-05-15T17:15:18.514Z,10.50
2019-05-15T17:17:48.720Z,10.50
2019-05-15T17:20:18.206Z,10.50
2019-05-15T17:22:48.376Z,10.50
2019-05-15T17:25:18.373Z,10.50
2019-05-15T17:27:47.572Z,10.40
2019-05-15T17:30:18.193Z,10.40
2019-05-15T17:32:49.255Z,10.30
2019-05-15T17:35:18.564Z,10.40
2019-05-15T17:37:48.697Z,10.40
2019-05-15T17:40:18.092Z,10.30
2019-05-15T17:42:49.246Z,10.30
2019-05-15T17:45:19.800Z,10.30
2019-05-15T17:47:49.167Z,10.40
2019-05-15T17:50:19.112Z,10.30
2019-05-15T17:52:49.148Z,10.30
2019-05-15T17:55:18.596Z,10.30
2019-05-15T17:57:54.524Z,10.30
2019-05-15T18:00:19.267Z,10.20
2019-05-15T18:02:48.750Z,10.20
2019-05-15T18:05:18.873Z,10.30
2019-05-15T18:07:48.859Z,10.20
2019-05-15T18:10:18.943Z,10.30
2019-05-15T18:12:48.778Z,10.20
2019-05-15T18:15:18.422Z,10.20
2019-05-15T18:17:48.095Z,10.20
2019-05-15T18:20:21.228Z,10.30
2019-05-15T18:22:50.298Z,10.20
2019-05-15T18:25:19.622Z,10.20
2019-05-15T18:27:48.540Z,10.20
2019-05-15T18:30:18.440Z,10.10
2019-05-15T18:32:48.822Z,10.10
2019-05-15T18:35:18.816Z,10.10
2019-05-15T18:37:48.331Z,10.10
2019-05-15T18:40:18.928Z,10.10
2019-05-15T18:42:49.567Z,10.20
2019-05-15T18:45:18.995Z,10.10
2019-05-15T18:47:48.125Z,10.20
2019-05-15T18:50:17.755Z,10.10
2019-05-15T18:52:48.832Z,10.20
2019-05-15T18:55:18.439Z,10.10
2019-05-15T18:57:48.600Z,10.10
2019-05-15T19:00:18.545Z,10.10
2019-05-15T19:02:47.799Z,10.20
2019-05-15T19:05:18.525Z,10.10
2019-05-15T19:07:48.701Z,10.10
2019-05-15T19:10:19.268Z,10.10
2019-05-15T19:12:48.514Z,10.10
2019-05-15T19:15:18.576Z,10.00
2019-05-15T19:17:47.886Z,10.00
2019-05-15T19:20:18.978Z,10.00
2019-05-15T19:22:48.426Z,9.90
2019-05-15T19:25:18.023Z,9.90
2019-05-15T19:27:47.172Z,9.90
2019-05-15T19:30:19.016Z,9.90
2019-05-15T19:32:49.114Z,9.90
2019-05-15T19:35:18.630Z,10.00
2019-05-15T19:37:48.877Z,10.00
2019-05-15T19:40:18.821Z,9.90
2019-05-15T19:42:48.765Z,9.90
2019-05-15T19:45:18.159Z,9.90
2019-05-15T19:47:47.793Z,9.90
2019-05-15T19:50:18.088Z,9.90
2019-05-15T19:52:48.228Z,9.90
2019-05-15T19:55:18.002Z,9.90
2019-05-15T19:57:48.278Z,9.90
2019-05-15T20:00:18.804Z,9.90
2019-05-15T20:02:48.593Z,9.90
2019-05-15T20:05:18.311Z,9.90
2019-05-15T20:07:48.037Z,9.90
2019-05-15T20:10:18.634Z,9.90
2019-05-15T20:12:48.068Z,9.90
2019-05-15T20:15:19.037Z,9.90
2019-05-15T20:17:48.162Z,9.90
2019-05-15T20:20:18.651Z,9.80
2019-05-15T20:22:48.097Z,9.80
2019-05-15T20:25:18.470Z,9.80
2019-05-15T20:27:48.258Z,9.70
2019-05-15T20:30:18.205Z,9.80
2019-05-15T20:32:47.921Z,9.70
2019-05-15T20:35:17.161Z,9.80
2019-05-15T20:37:48.471Z,9.80
2019-05-15T20:40:18.034Z,9.70
2019-05-15T20:42:48.412Z,9.70
2019-05-15T20:45:18.437Z,9.70
2019-05-15T20:47:47.851Z,9.70
2019-05-15T20:50:19.278Z,9.70
2019-05-15T20:52:48.897Z,9.70
2019-05-15T20:55:18.366Z,9.60
2019-05-15T20:57:50.342Z,9.60
2019-05-15T21:00:19.492Z,9.60
2019-05-15T21:02:48.825Z,9.60
2019-05-15T21:05:18.626Z,9.60
2019-05-15T21:07:48.515Z,9.60
2019-05-15T21:10:21.320Z,9.40
2019-05-15T21:12:49.305Z,9.40
2019-05-15T21:15:21.337Z,9.40
2019-05-15T21:17:57.661Z,9.30
2019-05-15T21:20:20.396Z,9.40
2019-05-15T21:22:49.565Z,9.40
2019-05-15T21:25:19.733Z,9.30
2019-05-15T21:27:49.214Z,9.30
2019-05-15T21:30:18.941Z,9.30
2019-05-15T21:32:49.462Z,9.30
2019-05-15T21:35:18.939Z,9.20
2019-05-15T21:37:48.971Z,9.20
2019-05-15T21:40:18.278Z,9.20
2019-05-15T21:42:49.172Z,9.30
2019-05-15T21:45:18.727Z,9.30
2019-05-15T21:47:47.785Z,9.30
2019-05-15T21:50:19.337Z,9.30
2019-05-15T21:52:49.459Z,9.20
2019-05-15T21:55:18.966Z,9.20
2019-05-15T21:57:48.154Z,9.20
2019-05-15T22:00:29.030Z,9.20
2019-05-15T22:02:58.521Z,9.20
2019-05-15T22:05:28.359Z,9.20
2019-05-15T22:07:58.756Z,9.20
2019-05-15T22:10:28.765Z,9.20
2019-05-15T22:12:58.900Z,9.20
2019-05-15T22:15:28.749Z,9.20
2019-05-15T22:17:58.222Z,9.10
2019-05-15T22:20:29.928Z,9.10
2019-05-15T22:22:59.560Z,9.10
2019-05-15T22:25:28.801Z,9.10
2019-05-15T22:27:58.284Z,9.10
2019-05-15T22:30:29.996Z,9.10
2019-05-15T22:32:58.718Z,9.10
2019-05-15T22:35:29.553Z,9.20
2019-05-15T22:37:58.819Z,9.10
2019-05-15T22:40:28.957Z,9.10
2019-05-15T22:42:59.170Z,9.10
2019-05-15T22:45:28.929Z,9.10
2019-05-15T22:47:58.542Z,9.10
2019-05-15T22:50:28.213Z,9.00
2019-05-15T22:52:58.736Z,9.00
2019-05-15T22:55:29.018Z,9.10
2019-05-15T22:57:59.746Z,9.10
2019-05-15T23:00:29.255Z,9.10
2019-05-15T23:02:58.418Z,9.10
2019-05-15T23:05:29.352Z,9.00
2019-05-15T23:07:58.870Z,9.00
2019-05-15T23:10:29.216Z,9.00
2019-05-15T23:12:58.699Z,9.10
2019-05-15T23:15:28.242Z,9.00
2019-05-15T23:17:58.337Z,9.00
2019-05-15T23:20:28.652Z,9.00
2019-05-15T23:22:58.597Z,9.00
2019-05-15T23:25:28.909Z,9.00
2019-05-15T23:27:58.462Z,9.00
2019-05-15T23:30:28.762Z,9.00
2019-05-15T23:32:58.345Z,9.00
2019-05-15T23:35:35.679Z,9.00
2019-05-15T23:37:58.447Z,9.00
2019-05-15T23:40:28.727Z,8.90
2019-05-15T23:42:58.231Z,9.00
2019-05-15T23:45:28.960Z,8.90
2019-05-15T23:47:58.249Z,8.90
2019-05-15T23:50:28.819Z,8.90
2019-05-15T23:52:58.505Z,8.90
2019-05-15T23:55:28.454Z,8.90
2019-05-15T23:57:58.502Z,8.80
